Time;durP1;ratioP1;P1;durP2;ratioP2;P2;SDS_P1;SDS_P2;PMS_P1;PMS_P2;Temp;Humidity;BMP_temperature;BMP_pressure;BME280_temperature;BME280_humidity;BME280_pressure;Samples;Min_cycle;Max_cycle;Signal;HPM_P1;HPM_P2
2022/01/25 00:26:36;;;;;;;;;;;;;;;-5.31;100.00;79717.64;1628323;86;21855;-59
2022/01/25 00:29:10;;;;;;;159.63;49.07;;;;;;;-5.33;100.00;80213.64;1647855;82;20145;-60
2022/01/25 00:31:37;;;;;;;123.53;37.67;;;;;;;-5.34;100.00;80711.80;1671560;82;21127;-60
2022/01/25 00:34:04;;;;;;;132.27;44.63;;;;;;;-5.37;100.00;82370.19;1689612;82;21074;-60
2022/01/25 00:36:32;;;;;;;192.92;60.80;;;;;;;-5.36;100.00;81706.19;1688700;82;21087;-57
2022/01/25 00:38:58;;;;;;;141.43;47.10;;;;;;;-5.35;100.00;79878.26;1677521;82;21515;-60
2022/01/25 00:41:26;;;;;;;149.07;49.57;;;;;;;-5.32;100.00;77057.05;1682012;82;21076;-59
2022/01/25 00:43:53;;;;;;;208.50;69.33;;;;;;;-5.29;100.00;75566.19;1682544;82;21106;-60
2022/01/25 00:46:21;;;;;;;211.27;69.83;;;;;;;-5.32;100.00;77390.01;1668704;82;21498;-56
2022/01/25 00:48:53;;;;;;;217.27;66.10;;;;;;;-5.30;100.00;77225.92;1672825;85;21088;-62
2022/01/25 00:54:13;;;;;;;127.63;41.07;;;;;;;-5.35;100.00;80377.08;1672992;83;21073;-60
2022/01/25 00:56:41;;;;;;;144.27;46.67;;;;;;;-5.39;100.00;81701.86;1672962;82;21076;-62
2022/01/25 00:59:09;;;;;;;66.83;25.20;;;;;;;-5.39;100.00;81202.88;1671241;82;21064;-57
2022/01/25 01:01:36;;;;;;;78.33;28.50;;;;;;;-5.37;100.00;80706.81;1688844;82;20971;-60
2022/01/25 01:04:06;;;;;;;91.87;33.00;;;;;;;-5.35;100.00;78548.41;1683466;82;21025;-59
2022/01/25 01:06:34;;;;;;;47.10;18.07;;;;;;;-5.32;100.00;77555.48;1682303;82;21032;-60
2022/01/25 01:09:00;;;;;;;34.50;13.40;;;;;;;-5.35;100.00;79878.26;1678115;82;21100;-60
2022/01/25 01:11:35;;;;;;;135.87;46.83;;;;;;;-5.37;100.00;81538.41;1682206;82;21638;-57
2022/01/25 01:14:10;;;;;;;86.80;29.43;;;;;;;-5.42;100.00;85359.49;1669581;82;21075;-57
2022/01/25 01:30:25;;;;;;;62.73;22.17;;;;;;;-5.50;100.00;86680.34;1670262;82;21623;-57
2022/01/25 01:43:43;;;;;;;103.13;33.37;;;;;;;-5.52;100.00;85844.64;1668444;83;22367;-57
2022/01/25 01:49:03;;;;;;;76.93;24.57;;;;;;;-5.52;100.00;86011.15;1668136;82;21525;-55
2022/01/25 01:51:17;;;;;;;119.03;36.53;;;;;;;-5.53;100.00;85177.17;1668286;82;21131;-58
2022/01/25 01:53:39;;;;;;;54.03;18.40;;;;;;;-5.53;100.00;85010.70;1687154;82;21129;-58
2022/01/25 01:56:05;;;;;;;54.47;18.27;;;;;;;-5.50;100.00;83682.97;1717651;82;21461;-56
2022/01/25 01:58:35;;;;;;;101.30;35.43;;;;;;;-5.49;100.00;82686.13;1709152;82;21162;-56
2022/01/25 02:01:01;;;;;;;82.40;29.80;;;;;;;-5.49;100.00;82519.78;1715170;82;21089;-57
2022/01/25 02:03:28;;;;;;;125.83;43.17;;;;;;;-5.50;100.00;83184.50;1710761;82;21771;-60
2022/01/25 02:05:55;;;;;;;96.77;33.60;;;;;;;-5.53;100.00;85176.41;1712258;82;21823;-60
2022/01/25 02:08:22;;;;;;;172.10;54.30;;;;;;;-5.56;100.00;86005.08;1718327;82;21145;-60
2022/01/25 02:10:48;;;;;;;139.40;44.35;;;;;;;-5.57;100.00;87335.81;1716046;82;21056;-60
2022/01/25 02:13:15;;;;;;;115.97;38.40;;;;;;;-5.57;100.00;87501.59;1713198;82;21667;-57
2022/01/25 02:15:44;;;;;;;159.50;50.40;;;;;;;-5.57;100.00;86169.28;1721679;82;21485;-60
2022/01/25 02:23:43;;;;;;;58.10;21.17;;;;;;;-5.58;100.00;85835.55;1713872;82;21126;-60
2022/01/25 02:26:10;;;;;;;100.87;33.10;;;;;;;-5.61;100.00;87496.20;1721145;82;21834;-56
2022/01/25 02:28:41;;;;;;;128.33;43.00;;;;;;;-5.61;100.00;88329.11;1721740;82;21113;-57
2022/01/25 02:31:09;;;;;;;76.77;26.87;;;;;;;-5.62;100.00;88660.77;1724193;82;21165;-60
2022/01/25 02:33:36;;;;;;;90.60;30.15;;;;;;;-5.64;100.00;89490.75;1716681;82;21129;-56
2022/01/25 02:36:24;;;;;;;46.13;16.65;;;;;;;-5.62;100.00;87994.38;1710951;82;21014;-56
2022/01/25 02:38:51;;;;;;;52.57;19.77;;;;;;;-5.64;100.00;88990.84;1706687;82;20998;-56
2022/01/25 02:41:17;;;;;;;89.27;30.97;;;;;;;-5.67;100.00;90486.00;1718545;82;21015;-57
2022/01/25 02:43:46;;;;;;;63.50;20.73;;;;;;;-5.66;100.00;89488.41;1709295;82;21856;-56
2022/01/25 02:49:01;;;;;;;207.80;64.37;;;;;;;-5.62;100.00;86495.45;1726453;82;21497;-56
2022/01/25 02:51:34;;;;;;;93.40;31.97;;;;;;;-5.62;100.00;86828.49;1711676;82;21547;-59
2022/01/25 02:54:01;;;;;;;162.73;52.60;;;;;;;-5.63;100.00;87659.68;1714187;82;21549;-59
2022/01/25 02:56:29;;;;;;;140.00;47.20;;;;;;;-5.66;100.00;88322.08;1703638;82;21109;-59
2022/01/25 02:58:56;;;;;;;138.30;46.17;;;;;;;-5.64;100.00;88324.41;1703651;83;23154;-56
2022/01/25 03:01:23;;;;;;;108.20;36.77;;;;;;;-5.63;100.00;87659.68;1699927;83;21521;-58
2022/01/25 03:03:50;;;;;;;104.10;34.87;;;;;;;-5.63;100.00;86993.48;1702946;83;21075;-60
2022/01/25 03:06:18;;;;;;;135.13;44.80;;;;;;;-5.65;100.00;88656.05;1683280;83;21052;-58
2022/01/25 03:08:46;;;;;;;100.60;33.03;;;;;;;-5.66;100.00;89820.90;1690838;83;21132;-60
2022/01/25 03:11:12;;;;;;;112.40;37.07;;;;;;;-5.68;100.00;92485.22;1703477;83;21144;-58
2022/01/25 03:13:50;;;;;;;170.17;54.50;;;;;;;-5.69;100.00;93318.42;1699368;82;21173;-56
2022/01/25 03:18:55;;;;;;;129.17;45.23;;;;;;;-5.75;100.00;95645.42;1705823;83;21638;-57
2022/01/25 03:21:35;;;;;;;168.00;51.47;;;;;;;-5.78;100.00;96808.92;1710906;82;21043;-56
2022/01/25 03:23:51;;;;;;;210.30;67.33;;;;;;;-5.81;100.00;98306.75;1683836;82;22314;-57
2022/01/25 03:26:18;;;;;;;290.20;92.20;;;;;;;-5.84;100.00;99303.82;1712589;82;21100;-57
2022/01/25 03:28:45;;;;;;;267.77;83.40;;;;;;;-5.85;100.00;98466.84;1703361;83;21065;-59
2022/01/25 03:31:12;;;;;;;224.20;71.47;;;;;;;-5.84;100.00;97800.53;1687762;83;21055;-60
2022/01/25 03:33:39;;;;;;;155.83;50.47;;;;;;;-5.84;100.00;97967.53;1709492;82;21126;-60
2022/01/25 03:36:07;;;;;;;119.23;38.20;;;;;;;-5.84;100.00;96965.66;1710494;82;21317;-60
2022/01/25 03:38:38;;;;;;;167.30;49.33;;;;;;;-5.83;100.00;95631.95;1707365;82;21495;-60
2022/01/25 03:41:07;;;;;;;159.10;49.23;;;;;;;-5.85;100.00;97798.81;1704288;82;21073;-58
2022/01/25 03:43:35;;;;;;;102.23;33.13;;;;;;;-5.88;100.00;100299.28;1703461;82;21574;-59
2022/01/25 03:46:58;;;;;;;164.37;53.43;;;;;;;-5.87;100.00;98964.44;1701855;83;21043;-55
2022/01/25 03:50:58;;;;;;;278.40;85.80;;;;;;;-5.85;100.00;97297.87;1712884;83;21090;-56
2022/01/25 03:53:25;;;;;;;274.33;87.17;;;;;;;-5.86;100.00;97630.07;1705136;83;21050;-59
2022/01/25 03:55:51;;;;;;;148.83;48.90;;;;;;;-5.84;100.00;97131.74;1706674;82;21592;-59
2022/01/25 03:58:19;;;;;;;118.87;38.97;;;;;;;-5.86;100.00;99467.36;1701628;83;21026;-57
2022/01/25 04:00:46;;;;;;;80.47;27.90;;;;;;;-5.87;100.00;100467.30;1708028;81;21311;-58
2022/01/25 04:03:24;;;;;;;156.90;45.97;;;;;;;-5.88;100.00;100799.77;1699437;83;21057;-56
2022/01/25 04:08:11;;;;;;;101.30;35.03;;;;;;;-5.86;100.00;99800.66;1704148;82;21496;-59
2022/01/25 04:10:39;;;;;;;108.80;35.00;;;;;;;-5.88;100.00;98294.60;1705475;82;21594;-57
2022/01/25 04:13:07;;;;;;;89.70;29.33;;;;;;;-5.82;100.00;95465.88;1694140;83;21387;-60
2022/01/25 04:15:36;;;;;;;158.80;51.50;;;;;;;-5.80;100.00;95136.33;1688893;83;21006;-57
2022/01/25 04:18:23;;;;;;;116.70;39.60;;;;;;;-5.81;100.00;95134.66;1702045;83;21094;-56
2022/01/25 04:20:35;;;;;;;240.87;77.50;;;;;;;-5.80;100.00;94135.20;1685815;82;21102;-60
2022/01/25 04:25:29;;;;;;;131.83;43.77;;;;;;;-5.82;100.00;95966.58;1669024;83;22046;-55
2022/01/25 04:27:55;;;;;;;104.40;35.87;;;;;;;-5.82;100.00;95632.77;1699851;82;21058;-57
2022/01/25 04:30:22;;;;;;;71.10;24.37;;;;;;;-5.82;100.00;94966.11;1706358;82;21529;-57
2022/01/25 04:33:01;;;;;;;61.17;21.27;;;;;;;-5.81;100.00;94133.53;1697219;82;21512;-56
2022/01/25 04:35:29;;;;;;;33.03;12.13;;;;;;;-5.84;100.00;96130.97;1707145;82;20999;-60
2022/01/25 04:49:12;;;;;;;31.53;12.20;;;;;;;-5.91;100.00;99625.67;1704881;83;21131;-59
2022/01/25 04:54:12;;;;;;;90.30;30.83;;;;;;;-5.91;100.00;99291.55;1704499;82;21019;-56
2022/01/25 04:56:39;;;;;;;47.70;17.13;;;;;;;-5.91;100.00;99124.52;1700050;82;21754;-56
2022/01/25 04:59:22;;;;;;;37.43;14.20;;;;;;;-5.95;100.00;101122.45;1709381;82;21051;-61
2022/01/25 05:01:42;;;;;;;98.00;34.10;;;;;;;-5.96;100.00;102625.10;1715029;82;21066;-56
2022/01/25 05:04:14;;;;;;;62.23;21.10;;;;;;;-5.98;100.00;102621.49;1716683;82;21605;-57
2022/01/25 05:06:38;;;;;;;20.17;8.07;;;;;;;-5.99;100.00;102786.88;1700185;82;21568;-57
2022/01/25 05:09:12;;;;;;;53.53;18.30;;;;;;;-6.03;100.00;107130.05;1711139;82;21051;-57
2022/01/25 05:11:37;;;;;;;36.53;14.93;;;;;;;-6.06;100.00;106789.66;1696091;82;21062;-60
2022/01/25 05:16:49;;;;;;;146.17;46.33;;;;;;;-6.05;100.00;102610.70;1717646;82;21140;-59
2022/01/25 05:24:36;;;;;;;57.50;18.87;;;;;;;-6.06;100.00;102274.58;1720850;82;21469;-60
2022/01/25 05:27:04;;;;;;;;;;;;;;;-6.06;100.00;101940.28;1714226;82;20953;-61
2022/01/25 05:29:31;;;;;;;196.27;56.93;;;;;;;-6.08;100.00;102605.29;1708225;82;21834;-61
2022/01/25 05:31:58;;;;;;;120.63;38.07;;;;;;;-6.12;100.00;105106.20;1716101;82;21131;-61
2022/01/25 05:34:25;;;;;;;39.20;14.90;;;;;;;-6.12;100.00;104102.72;1706705;82;21030;-60
2022/01/25 05:36:51;;;;;;;30.23;11.73;;;;;;;-6.14;100.00;103764.64;1702159;82;21646;-60
2022/01/25 05:39:23;;;;;;;23.43;8.80;;;;;;;-6.15;100.00;104933.41;1704446;82;21097;-61
2022/01/25 05:41:54;;;;;;;30.53;10.70;;;;;;;-6.16;100.00;105266.08;1693009;82;21508;-60
2022/01/25 05:44:24;;;;;;;35.63;13.80;;;;;;;-6.17;100.00;106769.94;1694086;82;21069;-61
2022/01/25 05:47:05;;;;;;;27.93;10.33;;;;;;;-6.19;100.00;109444.52;1700894;82;21062;-61
2022/01/25 05:49:21;;;;;;;20.67;8.93;;;;;;;-6.19;100.00;108439.90;1697214;82;21507;-61
2022/01/25 05:51:48;;;;;;;15.53;5.87;;;;;;;-6.18;100.00;108944.09;1710431;82;21141;-61
2022/01/25 05:54:14;;;;;;;34.27;12.00;;;;;;;-6.18;100.00;109278.98;1710219;82;21899;-60
2022/01/25 05:56:41;;;;;;;31.50;11.30;;;;;;;-6.19;100.00;109946.93;1711556;82;22132;-60
2022/01/25 05:59:08;;;;;;;22.03;8.60;;;;;;;-6.19;100.00;109947.91;1713126;82;21593;-60
2022/01/25 06:01:35;;;;;;;53.07;15.13;;;;;;;-6.17;100.00;109113.45;1706103;82;21052;-59
2022/01/25 06:04:02;;;;;;;48.07;18.13;;;;;;;-6.15;100.00;106940.11;1715626;82;21660;-60
2022/01/25 06:06:29;;;;;;;35.20;12.57;;;;;;;-6.13;100.00;105939.89;1710879;82;21109;-60
2022/01/25 06:08:56;;;;;;;27.67;9.60;;;;;;;-6.12;100.00;105440.77;1702396;82;21122;-61
2022/01/25 06:11:23;;;;;;;31.63;11.87;;;;;;;-6.09;100.00;104108.21;1708239;82;21507;-61
2022/01/25 06:13:51;;;;;;;43.60;14.50;;;;;;;-6.09;100.00;103940.09;1695997;82;21132;-60
2022/01/25 06:16:18;;;;;;;34.07;12.83;;;;;;;-6.10;100.00;106448.38;1700674;82;21521;-61
2022/01/25 06:18:45;;;;;;;92.30;29.63;;;;;;;-6.13;100.00;108450.39;1712765;82;21110;-60
2022/01/25 06:21:12;;;;;;;163.57;54.90;;;;;;;-6.14;100.00;108951.73;1715067;82;21078;-60
2022/01/25 06:23:38;;;;;;;73.17;25.00;;;;;;;-6.13;100.00;108618.77;1722049;82;21356;-61
2022/01/25 06:26:05;;;;;;;74.30;24.03;;;;;;;-6.14;100.00;109119.19;1718711;82;21012;-61
2022/01/25 06:28:33;;;;;;;106.93;36.10;;;;;;;-6.15;100.00;109618.73;1724066;82;21047;-60
2022/01/25 06:31:00;;;;;;;74.57;25.27;;;;;;;-6.16;100.00;110455.23;1720290;82;21507;-62
2022/01/25 06:33:27;;;;;;;55.47;19.17;;;;;;;-6.17;100.00;111123.41;1704446;82;21062;-57
2022/01/25 06:35:53;;;;;;;48.20;18.23;;;;;;;-6.16;100.00;110120.22;1707453;82;21560;-57
2022/01/25 06:38:20;;;;;;;92.43;30.17;;;;;;;-6.15;100.00;110122.16;1702804;82;21050;-60
2022/01/25 06:40:47;;;;;;;74.90;25.93;;;;;;;-6.16;100.00;110790.28;1704814;82;21063;-60
2022/01/25 06:43:14;;;;;;;75.37;24.07;;;;;;;-6.15;100.00;110457.17;1709670;82;21131;-56
2022/01/25 06:45:41;;;;;;;105.33;34.93;;;;;;;-6.13;100.00;109790.07;1719609;82;21443;-59
2022/01/25 06:48:08;;;;;;;69.33;23.33;;;;;;;-6.11;100.00;108621.64;1713274;82;21106;-57
2022/01/25 06:50:34;;;;;;;60.23;22.17;;;;;;;-6.12;100.00;109457.97;1708238;82;21082;-58
2022/01/25 06:53:01;;;;;;;28.63;11.97;;;;;;;-6.08;100.00;107790.22;1711305;82;21533;-58
2022/01/25 06:55:28;;;;;;;93.17;32.17;;;;;;;-6.06;100.00;107124.41;1716088;82;21182;-59
2022/01/25 06:57:55;;;;;;;118.40;40.77;;;;;;;-6.04;100.00;106960.78;1716275;82;21497;-60
2022/01/25 07:00:23;;;;;;;129.20;42.53;;;;;;;-6.00;100.00;105461.15;1719167;82;21672;-61
2022/01/25 07:02:50;;;;;;;205.60;67.30;;;;;;;-6.00;100.00;108139.28;1721075;81;21610;-58
2022/01/25 07:05:17;;;;;;;219.57;70.63;;;;;;;-6.02;100.00;108805.34;1710887;82;21568;-57
2022/01/25 07:07:45;;;;;;;114.10;36.60;;;;;;;-6.01;100.00;107802.55;1710236;82;21814;-57
2022/01/25 07:10:11;;;;;;;192.77;59.40;;;;;;;-5.98;100.00;106468.95;1711897;82;21474;-57
2022/01/25 07:12:38;;;;;;;452.97;143.73;;;;;;;-5.96;100.00;106305.31;1708823;81;21102;-57
2022/01/25 07:15:06;;;;;;;150.00;48.47;;;;;;;-5.94;100.00;104971.23;1706568;81;21163;-60
2022/01/25 07:17:33;;;;;;;274.57;80.83;;;;;;;-5.94;100.00;105974.31;1712771;81;21512;-60
2022/01/25 07:20:01;;;;;;;314.03;101.27;;;;;;;-5.93;100.00;105306.78;1703040;83;21108;-60
2022/01/25 07:22:27;;;;;;;114.87;41.67;;;;;;;-5.92;100.00;104639.37;1714731;81;21112;-57
2022/01/25 07:24:54;;;;;;;64.00;22.57;;;;;;;-5.89;100.00;103808.43;1710447;81;21096;-58
2022/01/25 07:27:22;;;;;;;86.33;26.27;;;;;;;-5.84;100.00;102645.88;1703575;82;21425;-58
2022/01/25 07:29:49;;;;;;;52.93;19.43;;;;;;;-5.85;100.00;103313.95;1710610;81;21084;-58
2022/01/25 07:32:16;;;;;;;154.87;52.00;;;;;;;-5.83;100.00;102815.83;1713489;82;21170;-57
2022/01/25 07:34:43;;;;;;;145.30;46.63;;;;;;;-5.87;100.00;105987.34;1707912;81;21073;-60
2022/01/25 07:37:10;;;;;;;117.23;37.00;;;;;;;-5.92;100.00;107987.98;1713702;81;21112;-56
2022/01/25 07:39:38;;;;;;;189.17;62.30;;;;;;;-5.92;100.00;107819.55;1703119;81;21090;-57
2022/01/25 07:42:09;;;;;;;199.63;65.73;;;;;;;-5.87;100.00;105819.06;1679681;83;21504;-59
2022/01/25 07:44:39;;;;;;;254.47;83.80;;;;;;;-5.86;100.00;103981.19;1709852;82;21840;-61
2022/01/25 07:47:07;;;;;;;206.10;64.13;;;;;;;-5.85;100.00;104819.60;1715621;81;21085;-59
2022/01/25 07:49:35;;;;;;;70.17;24.60;;;;;;;-5.86;100.00;105319.74;1705810;81;21120;-60
2022/01/25 07:52:03;;;;;;;148.77;48.03;;;;;;;-5.86;100.00;105487.09;1712252;81;21028;-61
2022/01/25 07:54:31;;;;;;;93.07;30.80;;;;;;;-5.83;100.00;104823.28;1707168;82;21622;-61
2022/01/25 07:56:57;;;;;;;110.27;35.27;;;;;;;-5.79;100.00;103491.20;1692286;83;21865;-60
2022/01/25 07:59:25;;;;;;;102.90;34.33;;;;;;;-5.73;100.00;101662.35;1683135;83;21475;-60
2022/01/25 08:01:52;;;;;;;71.47;25.90;;;;;;;-5.63;100.00;97667.95;1686107;83;21633;-61
2022/01/25 08:04:18;;;;;;;71.27;24.63;;;;;;;-5.61;100.00;97671.39;1664207;85;22477;-60
2022/01/25 08:06:45;;;;;;;105.37;34.50;;;;;;;-5.57;100.00;96842.18;1641618;84;21100;-61
2022/01/25 08:09:12;;;;;;;67.33;23.10;;;;;;;-5.54;100.00;96347.11;1671312;83;21581;-60
2022/01/25 08:11:39;;;;;;;40.00;14.90;;;;;;;-5.47;100.00;93854.48;1685459;84;21057;-61
2022/01/25 08:14:16;;;;;;;57.30;19.13;;;;;;;-5.40;100.00;91194.67;1684824;83;21656;-61
2022/01/25 08:16:45;;;;;;;35.88;12.18;;;;;;;-5.39;100.00;91529.89;1675835;83;21089;-61
2022/01/25 08:19:12;;;;;;;44.00;16.33;;;;;;;-5.46;100.00;94857.73;1688290;83;21054;-60
2022/01/25 08:21:41;;;;;;;90.13;28.67;;;;;;;-5.47;100.00;96024.94;1685203;83;21521;-61
2022/01/25 08:24:11;;;;;;;66.97;25.00;;;;;;;-5.39;100.00;93031.55;1686223;84;21061;-61
2022/01/25 08:26:39;;;;;;;117.23;41.43;;;;;;;-5.34;100.00;90871.50;1683021;84;21542;-59
2022/01/25 08:29:06;;;;;;;147.83;51.17;;;;;;;-5.30;100.00;89542.92;1683412;83;21018;-61
2022/01/25 08:31:35;;;;;;;241.17;78.17;;;;;;;-5.22;100.00;86721.69;1680448;83;21569;-60
2022/01/25 08:34:03;;;;;;;92.30;32.87;;;;;;;-5.14;100.00;84566.67;1686448;83;21080;-61
2022/01/25 08:36:30;;;;;;;66.07;24.60;;;;;;;-5.14;100.00;85732.68;1685253;83;21081;-61
2022/01/25 08:38:57;;;;;;;181.60;56.33;;;;;;;-5.13;100.00;85401.00;1686204;83;21073;-61
2022/01/25 08:41:25;;;;;;;93.07;30.93;;;;;;;-5.11;100.00;84238.06;1686285;83;21084;-58
2022/01/25 08:43:52;;;;;;;51.90;20.40;;;;;;;-5.11;100.00;84737.70;1685409;83;21171;-57
2022/01/25 08:46:19;;;;;;;51.73;18.17;;;;;;;-5.12;100.00;86236.31;1684693;83;21104;-57
2022/01/25 08:48:46;;;;;;;39.45;15.78;;;;;;;-5.18;100.00;88394.65;1680492;84;21105;-57
2022/01/25 08:51:13;;;;;;;42.97;15.37;;;;;;;-5.23;100.00;90888.34;1680694;83;21588;-57
2022/01/25 08:53:40;;;;;;;41.93;15.90;;;;;;;-5.25;100.00;92720.66;1683129;84;21095;-58
2022/01/25 08:56:08;;;;;;;57.20;20.23;;;;;;;-5.25;100.00;92053.08;1687479;83;21116;-57
2022/01/25 08:58:36;;;;;;;28.40;11.83;;;;;;;-5.20;100.00;89225.19;1699985;81;21172;-57
2022/01/25 09:01:04;;;;;;;37.03;11.17;;;;;;;-5.13;100.00;86567.31;1714609;81;21506;-61
2022/01/25 09:03:31;;;;;;;91.77;28.57;;;;;;;-5.06;100.00;84078.95;1722091;81;21560;-60
2022/01/25 09:05:58;;;;;;;189.23;52.00;;;;;;;-5.03;100.00;83250.75;1710823;81;21076;-61
2022/01/25 09:08:28;;;;;;;107.83;33.83;;;;;;;-5.03;100.00;83583.79;1720649;82;21043;-62
2022/01/25 09:11:00;;;;;;;80.67;24.72;;;;;;;-5.01;100.00;82421.20;1716238;81;21129;-61
2022/01/25 09:13:29;;;;;;;148.10;45.85;;;;;;;-4.97;100.00;80928.98;1711057;81;21610;-62
2022/01/25 09:15:59;;;;;;;85.45;27.98;;;;;;;-5.01;100.00;86085.66;1713314;82;21083;-61
2022/01/25 09:18:27;;;;;;;571.12;181.57;;;;;;;-5.02;100.00;85417.59;1716727;81;21080;-61
2022/01/25 09:20:55;;;;;;;232.15;63.98;;;;;;;-5.00;100.00;83921.31;1719162;81;21057;-61
2022/01/25 09:23:23;;;;;;;295.97;87.37;;;;;;;-5.03;100.00;85582.70;1719189;82;21198;-61
2022/01/25 09:25:50;;;;;;;352.93;100.20;;;;;;;-5.08;100.00;88076.00;1713306;81;21773;-61
2022/01/25 09:28:17;;;;;;;386.27;111.33;;;;;;;-5.08;100.00;88076.00;1714257;81;21105;-61
2022/01/25 09:30:44;;;;;;;167.03;51.27;;;;;;;-5.11;100.00;89404.59;1714875;81;21137;-61
2022/01/25 09:33:11;;;;;;;328.70;100.47;;;;;;;-5.06;100.00;85911.42;1712826;81;21554;-61
2022/01/25 09:35:38;;;;;;;186.73;57.10;;;;;;;-4.95;100.00;80265.50;1722695;81;21158;-60
2022/01/25 09:38:07;;;;;;;244.13;70.97;;;;;;;-4.79;100.00;73471.23;1714484;82;21850;-60
2022/01/25 09:40:34;;;;;;;409.97;129.23;;;;;;;-4.67;100.00;69500.66;1714280;81;21051;-60
2022/01/25 09:43:01;;;;;;;168.47;55.23;;;;;;;-4.73;100.00;73311.64;1716709;82;21542;-58
2022/01/25 09:45:29;;;;;;;172.98;55.38;;;;;;;-4.71;100.00;72152.28;1717888;81;21583;-58
2022/01/25 09:47:55;;;;;;;184.78;60.45;;;;;;;-4.69;100.00;71656.68;1711158;81;21040;-58
2022/01/25 09:50:22;;;;;;;122.45;40.78;;;;;;;-4.69;100.00;71490.00;1714687;81;21061;-58
2022/01/25 09:52:49;;;;;;;53.73;19.23;;;;;;;-4.65;100.00;70001.64;1713000;82;21096;-58
2022/01/25 09:55:20;;;;;;;146.53;47.40;;;;;;;-4.62;100.00;68014.18;1710662;81;21072;-58
2022/01/25 09:57:48;;;;;;;42.13;15.35;;;;;;;-4.54;100.00;65700.79;1704373;81;21625;-57
2022/01/25 10:00:19;;;;;;;45.70;15.15;;;;;;;-4.48;100.00;63387.31;1713951;81;21193;-60
2022/01/25 10:05:36;;;;;;;153.87;46.70;;;;;;;-4.62;100.00;70502.74;1720792;81;21148;-58
2022/01/25 10:08:10;;;;;;;57.10;20.25;;;;;;;-4.68;100.00;74648.06;1692077;81;21103;-61
2022/01/25 10:10:56;;;;;;;183.20;54.57;;;;;;;-4.68;100.00;74315.03;1718162;81;22238;-64
2022/01/25 10:13:33;;;;;;;171.25;51.85;;;;;;;-4.74;100.00;78131.53;1708826;82;21905;-61
2022/01/25 10:16:06;;;;;;;237.12;72.37;;;;;;;-4.82;100.00;81448.44;1719680;81;21123;-61
2022/01/25 10:18:54;;;;;;;239.27;77.35;;;;;;;-4.90;100.00;83936.16;1718251;81;21028;-62
2022/01/25 10:21:28;;;;;;;278.55;79.60;;;;;;;-4.92;100.00;82933.89;1717930;81;21560;-62
2022/01/25 10:24:11;;;;;;;130.05;42.65;;;;;;;-4.87;100.00;82107.16;1714398;81;21175;-60
2022/01/25 10:26:58;;;;;;;101.90;31.23;;;;;;;-4.90;100.00;84268.58;1716229;81;21157;-57
2022/01/25 10:29:32;;;;;;;94.67;31.47;;;;;;;-4.93;100.00;86097.84;1713863;81;21060;-58
2022/01/25 10:32:05;;;;;;;194.50;59.83;;;;;;;-4.96;100.00;89427.46;1681640;83;21620;-59
2022/01/25 10:34:45;;;;;;;242.47;77.17;;;;;;;-5.00;100.00;91591.24;1682951;83;21076;-58
2022/01/25 10:37:15;;;;;;;278.42;89.55;;;;;;;-4.94;100.00;86096.31;1683320;83;21328;-57
2022/01/25 10:39:51;;;;;;;200.77;65.37;;;;;;;-4.85;100.00;80611.85;1686844;83;21522;-58
2022/01/25 10:42:26;;;;;;;62.95;21.55;;;;;;;-4.74;100.00;75471.09;1676542;83;21144;-58
2022/01/25 10:45:16;;;;;;;208.17;66.85;;;;;;;-4.69;100.00;71988.78;1654966;84;21319;-58
2022/01/25 10:47:39;;;;;;;83.50;28.05;;;;;;;-4.57;100.00;67189.65;1685281;82;21735;-58
2022/01/25 10:50:31;;;;;;;24.53;10.80;;;;;;;-4.56;100.00;67356.70;1695252;83;21094;-58
2022/01/25 10:53:17;;;;;;;307.95;102.75;;;;;;;-4.57;100.00;68184.92;1700695;82;21102;-57
2022/01/25 10:55:53;;;;;;;90.45;29.92;;;;;;;-4.60;100.00;68016.61;1714663;81;21795;-58
2022/01/25 10:58:22;;;;;;;109.45;39.45;;;;;;;-4.53;100.00;64210.72;1715230;81;20914;-57
2022/01/25 11:00:50;;;;;;;189.10;63.40;;;;;;;-4.48;100.00;63387.31;1715175;81;20881;-58
2022/01/25 11:03:34;;;;;;;90.70;34.83;;;;;;;-4.46;100.00;62229.86;1727677;81;21074;-57
2022/01/25 11:06:19;;;;;;;44.18;16.50;;;;;;;-4.40;100.00;60911.50;1716942;81;21013;-59
2022/01/25 11:08:50;;;;;;;52.75;19.00;;;;;;;-4.36;100.00;60593.72;1717325;81;21096;-57
2022/01/25 11:11:35;;;;;;;84.25;26.73;;;;;;;-4.29;100.00;59449.26;1710584;81;21091;-58
2022/01/25 11:14:50;;;;;;;27.70;11.28;;;;;;;-4.32;100.00;60469.45;1719240;81;21114;-58
2022/01/25 11:16:33;;;;;;;35.58;12.40;;;;;;;-4.39;100.00;62568.45;1710933;81;21058;-58
2022/01/25 11:18:59;;;;;;;26.05;10.25;;;;;;;-4.42;100.00;64554.29;1708890;81;21147;-59
2022/01/25 11:21:30;;;;;;;20.30;7.70;;;;;;;-4.53;100.00;72506.95;1711163;81;21123;-58
2022/01/25 11:23:59;;;;;;;19.23;8.08;;;;;;;-4.60;100.00;76154.90;1715420;81;21567;-59
2022/01/25 11:26:33;;;;;;;20.00;8.93;;;;;;;-4.57;100.00;72833.39;1710986;81;21501;-60
2022/01/25 11:29:02;;;;;;;20.20;7.15;;;;;;;-4.53;100.00;70679.41;1711075;81;21153;-58
2022/01/25 11:31:29;;;;;;;23.33;9.37;;;;;;;-4.47;100.00;66869.89;1709741;81;21149;-58
2022/01/25 11:33:56;;;;;;;33.97;12.30;;;;;;;-4.40;100.00;62402.21;1719038;81;21930;-59
2022/01/25 11:36:23;;;;;;;23.38;8.93;;;;;;;-4.33;100.00;60304.07;1713487;81;21135;-56
2022/01/25 11:38:54;;;;;;;21.80;9.43;;;;;;;-4.24;100.00;58360.46;1711484;81;21091;-57
2022/01/25 11:41:26;;;;;;;25.60;10.65;;;;;;;-4.24;100.00;57198.18;1710580;81;21661;-59
2022/01/25 11:44:14;;;;;;;21.57;9.80;;;;;;;-4.19;100.00;55306.09;1721521;82;21538;-59
2022/01/25 11:47:01;;;;;;;40.88;13.88;;;;;;;-4.08;100.00;52505.77;1685548;81;21080;-59
2022/01/25 11:50:08;;;;;;;37.58;14.40;;;;;;;-3.96;100.00;48881.95;1713209;81;20943;-57
2022/01/25 11:52:53;;;;;;;188.35;60.20;;;;;;;-3.89;100.00;46411.88;1713199;81;21096;-59
2022/01/25 11:55:26;;;;;;;23.70;9.15;;;;;;;-3.96;100.00;49047.08;1716637;81;21127;-61
2022/01/25 11:58:13;;;;;;;76.17;27.98;;;;;;;-4.15;100.00;58107.36;1724248;81;21968;-61
2022/01/25 12:00:47;;;;;;;59.85;24.65;;;;;;;-4.33;100.00;62410.01;1713321;81;21108;-61
2022/01/25 12:03:33;;;;;;;52.17;19.82;;;;;;;-4.47;100.00;66207.06;1716508;81;21403;-60
2022/01/25 12:06:12;;;;;;;64.97;22.35;;;;;;;-4.49;100.00;64711.98;1715116;81;21123;-61
2022/01/25 12:11:36;;;;;;;108.90;34.83;;;;;;;-4.47;100.00;61235.58;1713090;82;21661;-61
2022/01/25 12:14:37;;;;;;;219.47;71.25;;;;;;;-4.47;100.00;60764.17;1716709;81;21152;-60
2022/01/25 12:17:07;;;;;;;154.55;52.33;;;;;;;-4.41;100.00;59175.03;1711045;81;21545;-60
2022/01/25 12:19:47;;;;;;;175.07;58.38;;;;;;;-4.41;100.00;59319.85;1714165;81;21068;-61
2022/01/25 12:22:35;;;;;;;58.87;20.25;;;;;;;-4.36;100.00;56810.80;1717135;81;21131;-59
2022/01/25 12:25:22;;;;;;;304.65;95.50;;;;;;;-4.26;100.00;53315.40;1716455;81;21133;-62
2022/01/25 12:27:59;;;;;;;124.30;43.97;;;;;;;-4.16;100.00;50846.56;1717616;81;21120;-60
2022/01/25 12:30:39;;;;;;;85.97;31.65;;;;;;;-4.18;100.00;52001.54;1715354;81;21132;-59
2022/01/25 12:33:24;;;;;;;423.43;148.07;;;;;;;-4.17;100.00;51672.05;1719093;81;21147;-61
2022/01/25 12:36:04;;;;;;;209.77;65.65;;;;;;;-4.18;100.00;52496.77;1717119;82;21401;-58
2022/01/25 12:38:43;;;;;;;129.40;43.63;;;;;;;-4.14;100.00;52335.30;1720382;82;21151;-57
2022/01/25 12:41:17;;;;;;;192.60;66.77;;;;;;;-4.15;100.00;52664.39;1714613;82;21720;-57
2022/01/25 12:43:53;;;;;;;242.28;81.17;;;;;;;-4.10;100.00;50356.55;1718594;81;25029;-57
2022/01/25 12:46:40;;;;;;;165.32;55.03;;;;;;;-4.13;100.00;52997.31;1718477;81;21426;-57
2022/01/25 12:49:10;;;;;;;65.57;23.83;;;;;;;-4.26;100.00;56532.30;1721327;81;21107;-58
2022/01/25 12:51:39;;;;;;;150.15;53.02;;;;;;;-4.26;100.00;56213.90;1720178;81;21733;-58
2022/01/25 12:54:08;;;;;;;81.28;30.52;;;;;;;-4.32;100.00;57410.20;1718865;81;21089;-57
2022/01/25 12:56:40;;;;;;;115.15;40.33;;;;;;;-4.34;100.00;57664.07;1715513;82;21052;-56
2022/01/25 12:59:14;;;;;;;108.35;39.67;;;;;;;-4.39;100.00;59562.51;1713042;81;21097;-57